Time;durP1;ratioP1;P1;durP2;ratioP2;P2;SDS_P1;SDS_P2;PMS_P1;PMS_P2;Temp;Humidity;BMP_temperature;BMP_pressure;BME280_temperature;BME280_humidity;BME280_pressure;Samples;Min_cycle;Max_cycle;Signal;HPM_P1;HPM_P2
2021/12/09 00:01:51;;;;;;;37.50;24.83;;;;;;;3.27;79.90;99234.50;5092582;28;20187;-57
2021/12/09 00:04:26;;;;;;;35.20;24.23;;;;;;;3.27;80.07;99236.22;5094709;28;20191;-57
2021/12/09 00:06:54;;;;;;;37.27;24.00;;;;;;;3.22;79.80;99240.19;5103537;28;20663;-55
2021/12/09 00:09:21;;;;;;;35.53;24.60;;;;;;;3.17;80.05;99249.31;5112402;28;20201;-56
2021/12/09 00:11:50;;;;;;;38.87;25.20;;;;;;;3.17;80.41;99241.69;5103497;28;20188;-56
2021/12/09 00:14:23;;;;;;;35.30;23.97;;;;;;;3.16;80.68;99247.59;5082131;28;20202;-56
2021/12/09 00:16:51;;;;;;;35.73;24.30;;;;;;;3.07;80.41;99245.53;5082824;28;20179;-56
2021/12/09 00:19:18;;;;;;;34.70;25.70;;;;;;;3.08;80.51;99252.31;5081049;28;20180;-56
2021/12/09 00:21:45;;;;;;;33.20;25.40;;;;;;;3.06;80.91;99255.63;5080915;28;20186;-56
2021/12/09 00:24:12;;;;;;;38.90;25.30;;;;;;;3.01;80.78;99252.91;5082420;28;20295;-56
2021/12/09 00:26:39;;;;;;;37.20;24.93;;;;;;;2.94;81.43;99245.81;5080920;28;20183;-56
2021/12/09 00:29:07;;;;;;;37.93;24.83;;;;;;;2.87;81.29;99252.31;5080492;28;20191;-56
2021/12/09 00:31:35;;;;;;;37.47;25.30;;;;;;;2.81;81.71;99253.72;5081687;28;20275;-56
2021/12/09 00:34:02;;;;;;;38.43;25.20;;;;;;;2.85;81.80;99256.47;5081417;28;20208;-56
2021/12/09 00:36:35;;;;;;;37.43;23.67;;;;;;;2.83;82.24;99267.34;5079982;28;20192;-56
2021/12/09 00:39:05;;;;;;;32.13;23.57;;;;;;;2.73;81.66;99266.06;5090585;28;20290;-56
2021/12/09 00:41:31;;;;;;;39.40;24.73;;;;;;;2.74;82.33;99267.81;5112052;28;20190;-56
2021/12/09 00:43:58;;;;;;;35.60;23.87;;;;;;;2.71;82.01;99252.47;5092489;28;20289;-56
2021/12/09 00:46:25;;;;;;;34.87;23.53;;;;;;;2.78;82.67;99276.41;5091618;28;20727;-56
2021/12/09 00:48:54;;;;;;;37.80;27.15;;;;;;;2.75;82.12;99283.88;5109985;28;20431;-56
2021/12/09 00:51:21;;;;;;;35.87;24.40;;;;;;;2.80;82.19;99278.19;5112301;28;20182;-56
2021/12/09 00:53:47;;;;;;;34.50;22.23;;;;;;;2.83;82.30;99269.88;5111577;28;20221;-56
2021/12/09 00:56:15;;;;;;;31.13;21.53;;;;;;;2.84;81.72;99274.13;5111810;28;20193;-56
2021/12/09 00:58:44;;;;;;;32.27;22.57;;;;;;;2.83;81.83;99273.25;5111649;28;20191;-56
2021/12/09 01:01:12;;;;;;;36.00;21.83;;;;;;;2.75;81.82;99273.75;5108878;28;20214;-56
2021/12/09 01:03:41;;;;;;;32.13;21.50;;;;;;;2.76;81.92;99276.34;5091241;28;20214;-56
2021/12/09 01:06:10;;;;;;;30.63;20.33;;;;;;;2.74;81.99;99277.97;5091268;28;20191;-56
2021/12/09 01:08:37;;;;;;;32.93;21.47;;;;;;;2.70;81.55;99277.75;5091212;28;20187;-56
2021/12/09 01:11:05;;;;;;;29.17;21.10;;;;;;;2.78;81.73;99281.47;5091228;28;20191;-56
2021/12/09 01:13:33;;;;;;;32.57;21.50;;;;;;;2.75;81.37;99282.22;5091114;28;20218;-56
2021/12/09 01:15:59;;;;;;;30.23;20.73;;;;;;;2.82;81.58;99276.63;5091046;28;20199;-56
2021/12/09 01:18:26;;;;;;;31.47;20.57;;;;;;;2.85;81.78;99271.69;5091181;28;20218;-56
2021/12/09 01:20:54;;;;;;;33.20;20.50;;;;;;;2.79;81.58;99279.03;5091081;28;20191;-56
2021/12/09 01:23:22;;;;;;;28.87;20.77;;;;;;;2.72;81.96;99273.63;5091159;28;20194;-56
2021/12/09 01:25:51;;;;;;;30.73;20.80;;;;;;;2.70;82.03;99268.47;5090616;28;20195;-56
2021/12/09 01:28:23;;;;;;;32.10;22.60;;;;;;;2.77;81.97;99267.09;5090742;28;20194;-56
2021/12/09 01:30:51;;;;;;;30.67;21.20;;;;;;;2.76;82.02;99271.28;5105420;28;20269;-56
2021/12/09 01:33:18;;;;;;;29.03;20.30;;;;;;;2.75;81.52;99266.13;5111063;28;20218;-56
2021/12/09 01:35:48;;;;;;;28.07;19.80;;;;;;;2.57;81.79;99232.38;5111042;28;20193;-56
2021/12/09 01:38:16;;;;;;;27.83;19.23;;;;;;;2.77;82.02;99257.81;5110814;28;20186;-56
2021/12/09 01:40:46;;;;;;;28.90;19.23;;;;;;;2.80;81.60;99260.44;5110929;28;20190;-56
2021/12/09 01:43:13;;;;;;;26.90;18.93;;;;;;;2.86;81.09;99258.19;5110402;28;20202;-56
2021/12/09 01:45:41;;;;;;;26.00;17.90;;;;;;;2.92;80.81;99248.28;5110282;28;20198;-56
2021/12/09 01:48:08;;;;;;;29.20;19.53;;;;;;;3.01;80.28;99246.94;5110581;28;20198;-56
2021/12/09 01:50:36;;;;;;;29.67;19.07;;;;;;;3.01;80.19;99246.94;5110654;28;20186;-56
2021/12/09 01:53:04;;;;;;;28.93;19.20;;;;;;;2.93;80.44;99239.03;5110629;28;20190;-56
2021/12/09 01:55:31;;;;;;;27.57;18.63;;;;;;;2.90;81.16;99241.44;5110471;28;20190;-56
2021/12/09 01:58:01;;;;;;;25.00;18.57;;;;;;;3.02;80.53;99238.53;5110631;28;20200;-56
2021/12/09 02:00:31;;;;;;;26.53;20.07;;;;;;;3.05;80.26;99229.34;5110444;28;20676;-56
2021/12/09 02:02:58;;;;;;;26.23;19.20;;;;;;;3.03;80.23;99220.81;5111023;28;20194;-56
2021/12/09 02:05:26;;;;;;;26.80;18.53;;;;;;;3.10;80.15;99214.34;5110885;28;20352;-56
2021/12/09 02:07:53;;;;;;;25.40;17.97;;;;;;;3.11;79.71;99214.38;5110584;28;20565;-56
2021/12/09 02:10:21;;;;;;;25.17;17.93;;;;;;;3.13;79.38;99209.41;5110711;28;20193;-56
2021/12/09 02:12:50;;;;;;;26.63;19.27;;;;;;;3.16;79.38;99219.69;5110848;28;20193;-56
2021/12/09 02:15:20;;;;;;;27.47;19.13;;;;;;;3.15;79.58;99203.56;5110734;28;20225;-56
2021/12/09 02:17:48;;;;;;;30.53;19.53;;;;;;;3.14;79.50;99203.50;5110480;28;20193;-56
2021/12/09 02:20:16;;;;;;;31.73;22.27;;;;;;;3.15;79.51;99212.84;5110337;28;20198;-56
2021/12/09 02:22:47;;;;;;;25.93;19.30;;;;;;;3.09;79.61;99208.41;5110450;28;20190;-56
2021/12/09 02:25:15;;;;;;;29.97;20.17;;;;;;;3.02;79.84;99205.56;5110817;28;20190;-56
2021/12/09 02:27:43;;;;;;;29.03;20.30;;;;;;;2.92;80.46;99205.16;5110170;28;20198;-56
2021/12/09 02:30:12;;;;;;;31.10;20.77;;;;;;;2.88;81.17;99198.22;5110165;28;20233;-56
2021/12/09 02:32:39;;;;;;;31.10;21.90;;;;;;;2.88;81.03;99208.38;5110152;28;20190;-56
2021/12/09 02:35:06;;;;;;;31.53;22.33;;;;;;;2.86;81.53;99212.50;5110115;28;20217;-56
2021/12/09 02:37:33;;;;;;;36.90;21.53;;;;;;;2.90;81.97;99224.53;5110317;28;20547;-56
2021/12/09 02:40:02;;;;;;;33.70;22.10;;;;;;;2.89;81.67;99227.00;5102227;28;20206;-56
2021/12/09 02:42:29;;;;;;;29.70;21.47;;;;;;;2.91;81.46;99211.03;5089966;28;20195;-56
2021/12/09 02:44:57;;;;;;;37.70;23.43;;;;;;;2.90;81.43;99231.28;5089974;28;20283;-56
2021/12/09 02:47:24;;;;;;;32.17;21.43;;;;;;;2.90;81.71;99231.28;5090072;28;20191;-56
2021/12/09 02:49:51;;;;;;;30.50;20.77;;;;;;;2.92;81.70;99228.00;5089922;28;20605;-56
2021/12/09 02:52:19;;;;;;;31.33;20.20;;;;;;;2.95;81.70;99230.66;5090129;28;20573;-56
2021/12/09 02:54:46;;;;;;;26.40;19.43;;;;;;;2.95;82.00;99228.13;5089862;28;21076;-56
2021/12/09 02:57:15;;;;;;;27.97;19.90;;;;;;;2.95;81.90;99224.72;5093867;28;20186;-56
2021/12/09 02:59:42;;;;;;;33.90;20.70;;;;;;;2.96;81.15;99222.25;5093764;28;20199;-56
2021/12/09 03:02:11;;;;;;;30.10;20.30;;;;;;;2.99;81.35;99235.03;5093572;28;20206;-55
2021/12/09 03:04:42;;;;;;;31.13;20.80;;;;;;;2.95;81.17;99225.59;5093343;28;20187;-55
2021/12/09 03:07:12;;;;;;;29.13;20.57;;;;;;;2.93;80.77;99237.34;5093694;28;20600;-55
2021/12/09 03:09:48;;;;;;;31.07;18.13;;;;;;;2.93;81.09;99247.50;5093588;28;20198;-55
2021/12/09 03:12:19;;;;;;;29.93;20.20;;;;;;;2.90;80.76;99255.00;5093430;28;20195;-55
2021/12/09 03:14:45;;;;;;;29.83;20.87;;;;;;;2.91;80.78;99254.16;5093217;28;20210;-55
2021/12/09 03:17:13;;;;;;;30.03;18.73;;;;;;;2.69;80.81;99225.31;5093427;28;20190;-56
2021/12/09 03:19:40;;;;;;;29.07;20.27;;;;;;;2.86;81.30;99260.72;5093287;28;20194;-56
2021/12/09 03:22:07;;;;;;;27.17;17.80;;;;;;;2.79;81.45;99258.72;5093579;28;20199;-56
2021/12/09 03:24:34;;;;;;;25.57;17.63;;;;;;;2.71;81.38;99260.06;5093096;28;20183;-56
2021/12/09 03:27:01;;;;;;;30.47;20.67;;;;;;;2.66;81.60;99253.06;5093339;28;20195;-55
2021/12/09 03:29:30;;;;;;;29.30;19.83;;;;;;;2.65;82.05;99261.47;5092978;28;20187;-56
2021/12/09 03:32:01;;;;;;;30.47;19.33;;;;;;;2.62;82.09;99261.34;5093147;28;20195;-56
2021/12/09 03:34:30;;;;;;;26.27;19.27;;;;;;;2.61;82.53;99252.00;5093057;28;20219;-56
2021/12/09 03:36:59;;;;;;;28.87;19.03;;;;;;;2.61;82.25;99245.25;5090667;28;20205;-56
2021/12/09 03:39:30;;;;;;;26.53;18.17;;;;;;;2.61;82.03;99254.53;5089240;28;20190;-56
2021/12/09 03:41:58;;;;;;;27.10;19.23;;;;;;;2.64;81.93;99259.72;5092871;28;20198;-56
2021/12/09 03:44:28;;;;;;;31.30;20.43;;;;;;;2.65;82.32;99252.19;5092606;28;20187;-56
2021/12/09 03:47:01;;;;;;;28.20;19.97;;;;;;;2.66;82.05;99251.41;5097846;28;20194;-56
2021/12/09 03:49:28;;;;;;;32.93;19.27;;;;;;;2.60;82.40;99248.59;5093844;28;20693;-56
2021/12/09 03:51:56;;;;;;;32.30;21.60;;;;;;;2.59;82.46;99257.00;5092298;28;20447;-56
2021/12/09 03:54:24;;;;;;;29.23;19.90;;;;;;;2.58;82.48;99252.75;5092164;28;20644;-56
2021/12/09 03:56:51;;;;;;;27.47;19.10;;;;;;;2.50;82.81;99273.50;5092330;28;20244;-56
2021/12/09 03:59:19;;;;;;;25.07;17.40;;;;;;;2.52;82.93;99267.69;5092320;28;20191;-56
2021/12/09 04:01:47;;;;;;;25.67;16.47;;;;;;;2.44;83.06;99276.63;5092452;28;20187;-56
2021/12/09 04:04:16;;;;;;;27.00;17.47;;;;;;;2.41;83.15;99273.94;5092375;28;20194;-56
2021/12/09 04:06:44;;;;;;;22.23;16.20;;;;;;;2.40;83.27;99274.75;5107097;28;20201;-56
2021/12/09 04:09:13;;;;;;;25.83;17.17;;;;;;;2.46;82.91;99266.53;5112465;28;20639;-56
2021/12/09 04:11:40;;;;;;;24.50;17.10;;;;;;;2.40;83.10;99259.53;5112651;28;20660;-56
2021/12/09 04:14:08;;;;;;;23.10;16.43;;;;;;;2.41;82.72;99256.22;5112210;28;20221;-56
2021/12/09 04:16:36;;;;;;;25.50;17.17;;;;;;;2.40;83.17;99262.06;5112319;28;20186;-56
2021/12/09 04:19:04;;;;;;;26.03;17.40;;;;;;;2.38;83.10;99256.06;5112384;28;20680;-56
2021/12/09 04:21:32;;;;;;;24.90;17.37;;;;;;;2.34;82.87;99269.38;5112539;28;20194;-56
2021/12/09 04:23:59;;;;;;;22.20;16.17;;;;;;;2.28;82.95;99259.00;5112523;28;20533;-56
2021/12/09 04:26:26;;;;;;;24.00;17.13;;;;;;;2.18;83.16;99261.91;5112630;28;20198;-56
2021/12/09 04:28:53;;;;;;;24.80;17.57;;;;;;;2.21;83.41;99262.91;5112627;28;20190;-56
2021/12/09 04:31:22;;;;;;;23.90;17.10;;;;;;;2.17;83.71;99255.13;5096445;28;20230;-56
2021/12/09 04:33:49;;;;;;;25.83;17.77;;;;;;;2.20;84.05;99261.16;5092189;28;20191;-56
2021/12/09 04:36:18;;;;;;;27.43;18.03;;;;;;;2.20;83.83;99271.31;5092088;28;20862;-56
2021/12/09 04:38:47;;;;;;;24.57;17.77;;;;;;;2.20;84.01;99270.44;5091897;28;20281;-56
2021/12/09 04:41:15;;;;;;;29.30;17.83;;;;;;;2.15;84.00;99271.91;5091605;28;20256;-56
2021/12/09 04:43:42;;;;;;;30.17;19.70;;;;;;;2.07;84.44;99266.50;5091758;28;20213;-56
2021/12/09 04:46:10;;;;;;;27.27;18.77;;;;;;;2.08;84.47;99270.78;5091598;28;20233;-56
2021/12/09 04:48:36;;;;;;;24.87;18.00;;;;;;;2.16;84.36;99284.66;5091340;28;20214;-56
2021/12/09 04:51:04;;;;;;;24.80;17.53;;;;;;;2.14;84.50;99290.47;5091458;28;20190;-56
2021/12/09 04:53:31;;;;;;;32.20;19.03;;;;;;;2.13;84.51;99292.13;5091377;28;20194;-56
2021/12/09 04:56:00;;;;;;;31.00;20.17;;;;;;;2.12;84.45;99307.22;5091344;28;20230;-56
2021/12/09 04:58:28;;;;;;;27.90;19.70;;;;;;;2.14;84.84;99301.44;5091386;28;20201;-56
2021/12/09 05:00:58;;;;;;;33.20;20.37;;;;;;;2.08;84.51;99300.31;5091426;28;20186;-56
2021/12/09 05:03:25;;;;;;;32.47;20.60;;;;;;;1.91;84.51;99275.84;5091710;28;20182;-56
2021/12/09 05:05:55;;;;;;;31.33;21.00;;;;;;;1.93;84.95;99287.78;5091067;28;20199;-56
2021/12/09 05:08:26;;;;;;;31.87;20.93;;;;;;;2.00;85.04;99291.47;5091163;28;20191;-56
2021/12/09 05:11:01;;;;;;;31.10;21.47;;;;;;;1.92;84.83;99300.41;5091020;28;20197;-56
2021/12/09 05:13:32;;;;;;;33.58;22.48;;;;;;;2.00;85.13;99291.47;5090856;28;20452;-56
2021/12/09 05:16:00;;;;;;;35.10;22.33;;;;;;;1.95;85.12;99282.81;5090893;28;20241;-56
2021/12/09 05:18:31;;;;;;;35.27;22.70;;;;;;;1.89;84.95;99287.59;5091025;28;20201;-56
2021/12/09 05:20:58;;;;;;;33.70;23.20;;;;;;;1.90;85.20;99299.44;5090921;28;20194;-56
2021/12/09 05:23:26;;;;;;;37.93;24.87;;;;;;;1.91;84.90;99294.44;5090934;28;20221;-56
2021/12/09 05:25:53;;;;;;;38.60;23.83;;;;;;;1.95;85.42;99296.31;5090947;28;20209;-56
2021/12/09 05:28:29;;;;;;;38.73;24.37;;;;;;;1.96;85.01;99304.78;5090759;28;20187;-56
2021/12/09 05:33:42;;;;;;;35.37;23.00;;;;;;;1.97;85.15;99304.00;5091048;28;20189;-56
2021/12/09 05:36:09;;;;;;;37.27;22.90;;;;;;;1.94;84.90;99312.34;5090562;28;20210;-56
2021/12/09 05:38:36;;;;;;;45.13;24.50;;;;;;;1.93;85.23;99309.72;5090759;28;20201;-56
2021/12/09 05:41:04;;;;;;;39.13;23.60;;;;;;;1.61;85.10;99286.28;5090784;28;20194;-57
2021/12/09 05:43:31;;;;;;;38.77;24.33;;;;;;;1.85;85.27;99321.16;5090744;28;20570;-56
2021/12/09 05:45:59;;;;;;;38.03;23.50;;;;;;;1.92;85.35;99338.38;5090440;28;20207;-56
2021/12/09 05:48:26;;;;;;;36.83;22.60;;;;;;;1.82;84.88;99333.66;5090280;28;20297;-56
2021/12/09 05:50:54;;;;;;;36.53;23.70;;;;;;;1.63;84.70;99312.53;5090329;28;20194;-56
2021/12/09 05:53:20;;;;;;;37.53;23.60;;;;;;;1.76;84.96;99335.09;5090343;28;20310;-56
2021/12/09 05:55:48;;;;;;;38.60;23.90;;;;;;;1.83;85.11;99337.94;5089952;28;20219;-56
2021/12/09 05:58:16;;;;;;;41.47;24.50;;;;;;;1.84;84.70;99349.81;5090404;28;20643;-56
2021/12/09 06:00:44;;;;;;;36.47;24.07;;;;;;;1.87;84.20;99357.56;5090208;28;20191;-56
2021/12/09 06:03:12;;;;;;;42.30;23.63;;;;;;;1.82;83.61;99354.78;5090981;28;20694;-56
2021/12/09 06:05:40;;;;;;;35.97;23.30;;;;;;;1.83;83.45;99353.13;5110362;28;20296;-56
2021/12/09 06:08:07;;;;;;;37.80;22.83;;;;;;;1.81;83.42;99340.41;5110804;28;20277;-56
2021/12/09 06:10:36;;;;;;;36.30;23.70;;;;;;;1.86;83.31;99343.16;5110258;28;20236;-56
2021/12/09 06:13:03;;;;;;;34.03;22.73;;;;;;;1.88;83.27;99357.63;5110611;28;20755;-56
2021/12/09 06:15:30;;;;;;;34.07;22.43;;;;;;;1.93;83.27;99371.38;5110264;28;20696;-56
2021/12/09 06:17:58;;;;;;;37.17;26.48;;;;;;;1.82;83.20;99343.78;5109690;28;20434;-56
2021/12/09 06:20:27;;;;;;;34.77;24.67;;;;;;;2.07;82.37;99379.63;5110531;28;20212;-56
2021/12/09 06:22:54;;;;;;;32.50;23.30;;;;;;;1.87;82.31;99337.31;5110590;28;20194;-57
2021/12/09 06:25:22;;;;;;;31.63;21.90;;;;;;;1.97;81.49;99374.94;5110205;28;20222;-57
2021/12/09 06:27:51;;;;;;;36.57;24.07;;;;;;;1.92;82.24;99383.97;5109918;28;20202;-56
2021/12/09 06:30:20;;;;;;;36.10;23.33;;;;;;;2.44;82.56;99389.84;5110707;28;20221;-56
2021/12/09 06:32:47;;;;;;;35.80;21.67;;;;;;;3.44;78.08;99396.03;5114044;28;20301;-56
2021/12/09 06:35:15;;;;;;;32.63;21.97;;;;;;;3.41;75.72;99387.41;5114643;28;20224;-57
2021/12/09 06:37:45;;;;;;;32.80;21.10;;;;;;;3.19;76.04;99392.38;5114458;28;20190;-57
2021/12/09 06:40:15;;;;;;;30.20;19.07;;;;;;;2.94;77.20;99387.88;5113873;28;20195;-56
2021/12/09 06:42:42;;;;;;;30.40;18.03;;;;;;;3.22;77.86;99397.59;5114091;28;20625;-56
2021/12/09 06:45:11;;;;;;;28.77;17.43;;;;;;;4.23;75.96;99388.28;5114109;28;20190;-56
2021/12/09 06:47:39;;;;;;;25.33;16.20;;;;;;;4.62;72.23;99387.22;5113809;28;20602;-56
2021/12/09 06:50:08;;;;;;;26.33;18.40;;;;;;;4.40;72.10;99377.06;5113875;28;20273;-56
2021/12/09 06:52:35;;;;;;;26.03;16.80;;;;;;;4.06;72.33;99375.75;5113509;28;20735;-56
2021/12/09 06:55:04;;;;;;;22.50;16.33;;;;;;;3.74;73.51;99377.78;5106783;28;20219;-56
2021/12/09 06:57:31;;;;;;;23.63;16.17;;;;;;;3.54;74.39;99369.38;5081976;28;20273;-56
2021/12/09 06:59:58;;;;;;;23.50;16.53;;;;;;;3.39;74.63;99364.50;5075142;28;20184;-56
2021/12/09 07:02:25;;;;;;;26.50;18.17;;;;;;;3.28;74.61;99358.13;5072331;28;20228;-56
2021/12/09 07:04:52;;;;;;;25.97;18.00;;;;;;;3.20;75.47;99356.03;5072879;28;20192;-56
2021/12/09 07:07:19;;;;;;;29.33;17.87;;;;;;;3.24;75.76;99360.47;5072940;28;20202;-57
2021/12/09 07:09:46;;;;;;;27.30;17.97;;;;;;;3.26;75.71;99366.47;5072606;28;20195;-56
2021/12/09 07:12:14;;;;;;;24.10;17.50;;;;;;;3.20;75.77;99364.53;5072443;28;20223;-56
2021/12/09 07:14:43;;;;;;;28.87;18.27;;;;;;;3.04;76.23;99353.66;5072403;28;20198;-56
2021/12/09 07:17:10;;;;;;;30.07;19.53;;;;;;;2.95;76.86;99367.69;5072699;28;20761;-56
2021/12/09 07:19:37;;;;;;;29.93;19.63;;;;;;;3.01;76.61;99364.53;5072811;28;20195;-56
2021/12/09 07:22:05;;;;;;;24.70;17.33;;;;;;;2.98;76.67;99354.25;5075613;28;20733;-56
2021/12/09 07:24:32;;;;;;;28.17;18.10;;;;;;;3.06;76.54;99368.13;5086922;28;20551;-57
2021/12/09 07:26:59;;;;;;;29.60;19.93;;;;;;;3.08;76.54;99360.63;5072277;28;20196;-57
2021/12/09 07:29:29;;;;;;;30.37;19.27;;;;;;;3.16;77.15;99374.50;5071920;28;20187;-56
2021/12/09 07:31:56;;;;;;;30.37;19.87;;;;;;;3.22;76.84;99374.75;5072589;28;20198;-55
2021/12/09 07:34:23;;;;;;;29.27;19.47;;;;;;;3.27;76.11;99371.59;5072380;28;20187;-56
2021/12/09 07:36:50;;;;;;;27.10;18.50;;;;;;;3.29;76.21;99375.09;5072142;28;20226;-56
2021/12/09 07:39:17;;;;;;;26.50;18.93;;;;;;;3.37;76.22;99383.03;5072342;28;20198;-56
2021/12/09 07:41:44;;;;;;;26.57;18.50;;;;;;;3.36;76.48;99381.28;5070883;28;20547;-56
2021/12/09 07:44:13;;;;;;;28.10;19.03;;;;;;;3.47;76.15;99372.44;5072100;28;20286;-56
2021/12/09 07:46:43;;;;;;;31.57;19.70;;;;;;;3.57;76.75;99366.97;5072504;28;20192;-57
2021/12/09 07:49:10;;;;;;;28.73;20.30;;;;;;;3.69;76.10;99370.00;5072043;28;20196;-56
2021/12/09 07:51:36;;;;;;;31.27;19.70;;;;;;;3.75;76.05;99367.72;5072094;28;20196;-56
2021/12/09 07:54:04;;;;;;;28.17;19.77;;;;;;;3.83;76.07;99355.31;5071962;28;20706;-56
2021/12/09 07:56:31;;;;;;;27.10;19.33;;;;;;;3.97;75.31;99366.88;5072225;28;20212;-55
2021/12/09 07:58:58;;;;;;;31.57;21.23;;;;;;;4.06;75.55;99368.13;5086606;28;20190;-56
2021/12/09 08:01:25;;;;;;;30.90;22.30;;;;;;;3.95;74.39;99364.31;5104662;28;20201;-56
2021/12/09 08:03:53;;;;;;;33.07;22.40;;;;;;;4.09;74.85;99354.69;5112332;28;20190;-56
2021/12/09 08:06:20;;;;;;;27.73;20.80;;;;;;;4.15;74.78;99350.69;5089094;28;20655;-57
2021/12/09 08:08:47;;;;;;;34.53;20.20;;;;;;;4.31;74.21;99351.28;5082550;28;20549;-56
2021/12/09 08:11:14;;;;;;;34.67;21.40;;;;;;;4.39;74.68;99353.31;5082483;28;20192;-56
2021/12/09 08:13:41;;;;;;;32.03;22.73;;;;;;;4.48;73.22;99350.22;5082476;28;20187;-57
2021/12/09 08:16:08;;;;;;;32.03;20.90;;;;;;;4.49;73.68;99355.41;5081090;28;20708;-56
2021/12/09 08:18:53;;;;;;;33.90;23.43;;;;;;;4.46;73.46;99354.41;5082016;28;20184;-56
2021/12/09 08:21:22;;;;;;;33.00;23.47;;;;;;;4.30;73.91;99357.16;5091701;28;20217;-56
2021/12/09 08:23:49;;;;;;;39.53;25.33;;;;;;;4.28;74.02;99353.72;5085676;28;20570;-57
2021/12/09 08:26:16;;;;;;;33.53;24.03;;;;;;;4.34;73.76;99353.97;5074328;28;20187;-56
2021/12/09 08:28:42;;;;;;;37.33;23.13;;;;;;;4.41;73.83;99361.00;5071491;28;20188;-56
2021/12/09 08:31:09;;;;;;;33.80;24.10;;;;;;;4.55;73.31;99362.38;5079138;28;20564;-56
2021/12/09 08:33:37;;;;;;;34.00;24.30;;;;;;;4.64;72.83;99353.41;5071237;28;20551;-56
2021/12/09 08:36:04;;;;;;;34.50;24.30;;;;;;;4.67;72.76;99356.06;5071500;28;20302;-56
2021/12/09 08:38:33;;;;;;;33.60;24.20;;;;;;;4.63;72.66;99351.69;5071259;28;20202;-56
2021/12/09 08:41:01;;;;;;;36.27;24.63;;;;;;;4.70;73.14;99348.56;5071044;28;20196;-55
2021/12/09 08:43:28;;;;;;;37.07;25.60;;;;;;;4.57;73.55;99348.91;5071143;28;20551;-56
2021/12/09 08:45:56;;;;;;;33.93;25.80;;;;;;;4.55;74.75;99339.50;5070897;28;20662;-56
2021/12/09 08:48:24;;;;;;;38.27;22.73;;;;;;;4.56;73.57;99341.25;5070787;28;20217;-56
2021/12/09 08:50:52;;;;;;;38.57;25.57;;;;;;;4.67;73.18;99339.94;5071137;28;20196;-58
2021/12/09 08:53:22;;;;;;;40.13;24.27;;;;;;;4.76;73.54;99341.16;5070172;28;20188;-56
2021/12/09 08:55:52;;;;;;;35.47;24.93;;;;;;;4.86;72.97;99342.34;5089164;28;20204;-57
2021/12/09 08:58:19;;;;;;;40.17;28.45;;;;;;;5.01;72.29;99335.25;5090053;28;20440;-57
2021/12/09 09:00:49;;;;;;;34.20;24.53;;;;;;;5.03;71.94;99333.63;5090576;28;20281;-56
2021/12/09 09:03:16;;;;;;;33.73;23.73;;;;;;;5.14;72.46;99331.44;5091125;28;20195;-56
2021/12/09 09:05:43;;;;;;;39.00;25.90;;;;;;;5.33;71.75;99328.72;5090734;28;20677;-56
2021/12/09 09:08:11;;;;;;;38.97;24.70;;;;;;;5.47;70.98;99319.84;5094812;28;20198;-56
2021/12/09 09:10:41;;;;;;;51.17;28.17;;;;;;;5.58;71.17;99317.66;5111385;28;20198;-56
2021/12/09 09:13:10;;;;;;;47.83;28.03;;;;;;;5.70;70.09;99302.78;5111465;28;20205;-56
2021/12/09 09:15:37;;;;;;;39.33;27.60;;;;;;;5.80;70.42;99292.06;5111060;28;20300;-56
2021/12/09 09:18:05;;;;;;;42.63;29.07;;;;;;;5.88;69.50;99294.06;5110837;28;20196;-57
2021/12/09 09:20:34;;;;;;;42.70;28.87;;;;;;;5.90;69.25;99296.69;5111092;28;20572;-57
2021/12/09 09:23:01;;;;;;;38.93;28.33;;;;;;;5.98;69.45;99291.81;5110713;28;20667;-58
2021/12/09 09:25:29;;;;;;;40.07;29.33;;;;;;;5.97;68.76;99278.19;5110461;28;20194;-58
2021/12/09 09:27:57;;;;;;;44.13;30.53;;;;;;;6.09;69.58;99275.16;5110420;28;20235;-57
2021/12/09 09:30:34;;;;;;;58.97;39.07;;;;;;;5.75;69.75;99247.72;5109266;28;20232;-57
2021/12/09 09:33:01;;;;;;;64.47;41.23;;;;;;;6.05;70.51;99279.28;5109394;28;20183;-58
2021/12/09 09:35:29;;;;;;;58.60;39.53;;;;;;;6.16;70.08;99269.41;5106768;28;20274;-57
2021/12/09 09:37:57;;;;;;;59.77;40.37;;;;;;;5.73;69.71;99188.19;5107178;28;20193;-57
2021/12/09 09:40:27;;;;;;;66.27;41.37;;;;;;;5.99;70.39;99256.16;5107099;28;20273;-56
2021/12/09 09:43:01;;;;;;;55.63;37.90;;;;;;;6.14;70.15;99264.28;5107660;28;20601;-57
2021/12/09 09:45:29;;;;;;;59.53;40.03;;;;;;;6.25;70.40;99255.25;5108149;28;20198;-56
2021/12/09 09:47:57;;;;;;;44.30;30.30;;;;;;;6.39;69.52;99253.97;5108325;28;20190;-56
2021/12/09 09:50:24;;;;;;;40.47;28.87;;;;;;;6.38;68.53;99251.34;5110047;28;20214;-56
2021/12/09 09:52:51;;;;;;;49.17;32.57;;;;;;;6.25;70.02;99259.47;5109655;28;20726;-56
2021/12/09 09:55:21;;;;;;;57.30;38.87;;;;;;;6.48;69.75;99249.09;5109994;28;20278;-56
2021/12/09 09:57:50;;;;;;;61.00;39.23;;;;;;;6.52;69.42;99250.06;5109825;28;20190;-61
2021/12/09 10:00:21;;;;;;;57.50;41.10;;;;;;;6.69;68.70;99260.75;5109957;28;20570;-56
2021/12/09 10:02:53;;;;;;;63.73;40.80;;;;;;;6.58;68.59;99246.81;5110298;28;20204;-56
2021/12/09 10:05:28;;;;;;;64.43;41.57;;;;;;;6.60;68.46;99246.03;5109309;28;20196;-58
2021/12/09 10:07:55;;;;;;;62.57;42.63;;;;;;;6.75;68.48;99233.69;5110168;28;20221;-56
2021/12/09 10:10:23;;;;;;;52.27;36.60;;;;;;;6.83;67.70;99241.56;5110001;28;20199;-57
2021/12/09 10:13:00;;;;;;;59.40;36.80;;;;;;;6.92;67.87;99246.94;5109567;28;20239;-57
2021/12/09 10:15:35;;;;;;;57.33;39.40;;;;;;;6.81;67.81;99240.66;5109963;28;20343;-56
2021/12/09 10:18:04;;;;;;;58.23;40.43;;;;;;;6.96;67.97;99241.06;5109606;28;20189;-57
2021/12/09 10:20:47;;;;;;;56.00;40.70;;;;;;;7.21;67.45;99232.34;5109371;28;20194;-57
2021/12/09 10:23:26;;;;;;;54.13;35.87;;;;;;;7.23;67.07;99218.78;5109564;28;20577;-56
2021/12/09 10:26:11;;;;;;;57.53;37.43;;;;;;;7.29;67.03;99218.06;5109564;28;20202;-56
2021/12/09 10:28:40;;;;;;;46.80;36.00;;;;;;;7.28;66.64;99216.34;5109835;28;20190;-57
2021/12/09 10:31:13;;;;;;;54.27;37.90;;;;;;;7.36;66.78;99209.72;5109696;28;20718;-57
2021/12/09 10:34:16;;;;;;;55.23;35.90;;;;;;;7.60;66.34;99208.63;5109783;28;20675;-57
2021/12/09 10:36:58;;;;;;;53.50;35.53;;;;;;;7.63;66.58;99207.81;5109691;28;20284;-56
2021/12/09 10:39:32;;;;;;;54.50;35.13;;;;;;;7.91;66.08;99202.47;5109581;28;20279;-57
2021/12/09 10:42:01;;;;;;;55.07;34.40;;;;;;;7.87;66.21;99200.69;5109518;28;20191;-57
2021/12/09 10:44:41;;;;;;;50.53;34.57;;;;;;;7.81;66.46;99190.31;5109758;28;20314;-57
2021/12/09 10:47:13;;;;;;;48.30;33.57;;;;;;;7.64;66.72;99179.72;5109492;28;20191;-61
2021/12/09 10:49:52;;;;;;;57.60;32.77;;;;;;;7.70;66.80;99186.66;5109684;28;20194;-61
2021/12/09 10:52:22;;;;;;;50.17;33.17;;;;;;;7.82;66.69;99176.72;5109612;28;20272;-61
2021/12/09 10:54:49;;;;;;;55.33;35.87;;;;;;;7.86;66.68;99183.63;5109634;28;20202;-61
2021/12/09 10:57:32;;;;;;;54.57;36.27;;;;;;;7.78;67.19;99184.28;5109295;28;20219;-61
2021/12/09 11:00:16;;;;;;;58.83;36.03;;;;;;;7.96;66.28;99189.81;5109712;28;20750;-61
2021/12/09 11:03:02;;;;;;;57.23;37.53;;;;;;;8.07;66.35;99193.47;5109373;28;20188;-61
2021/12/09 11:05:32;;;;;;;58.27;38.17;;;;;;;8.23;66.44;99180.16;5109681;28;20194;-61
2021/12/09 11:08:15;;;;;;;51.80;35.93;;;;;;;8.22;66.43;99170.72;5096741;28;20193;-60
2021/12/09 11:10:46;;;;;;;51.33;33.87;;;;;;;8.21;66.75;99171.59;5068811;28;20699;-61
2021/12/09 11:13:15;;;;;;;41.93;27.63;;;;;;;8.30;67.30;99171.78;5089561;28;20195;-62
2021/12/09 11:15:49;;;;;;;39.40;25.83;;;;;;;8.36;67.54;99166.78;5102935;28;20187;-60
2021/12/09 11:18:35;;;;;;;35.37;24.37;;;;;;;8.46;67.35;99163.56;5095099;28;20239;-61
2021/12/09 11:21:08;;;;;;;37.90;24.43;;;;;;;8.50;67.90;99155.13;5102957;28;20305;-60
2021/12/09 11:23:45;;;;;;;32.43;23.93;;;;;;;8.36;68.25;99143.75;5072759;28;20195;-61
2021/12/09 11:26:43;;;;;;;31.93;22.37;;;;;;;8.07;68.92;99140.59;5072349;28;20201;-60
2021/12/09 11:29:13;;;;;;;28.83;20.53;;;;;;;8.11;68.57;99139.81;5088747;28;20204;-60
2021/12/09 11:31:55;;;;;;;29.57;20.00;;;;;;;8.32;68.23;99136.00;5112860;28;20314;-61
2021/12/09 11:34:26;;;;;;;30.73;20.13;;;;;;;8.38;68.49;99133.56;5098169;28;20208;-61
2021/12/09 11:37:01;;;;;;;27.17;19.73;;;;;;;8.41;67.95;99129.34;5092350;28;20219;-61